Alton, Illinois
Current Conditions -  °F | °C
As of 10:50 AM on Thursday 23 Oct 2014 (Local Time) from KALN Reporting Station
Overcast Overcast  
Wind Chill: 57°   Ceiling: 15000
Heat Index: 57°   Visibility: 10mi
Dew Point: 45°   Wind: 14mph
Humidity: 63%   Direction: 190°S
Pressure: 30.22"   Gusts: NA
Location:  38.89°N, 90.18°W
Report Text: KALN 231550Z 19012KT 10SM BKN150 OVC250 14/07 A3022
Loading
Personal Weather Stations






























Interactive Weather Map New forecast layout! Learn more

10-Day Weather Forecast

Advertisements
Track Severe Weather on mobile